createdAt,value
2023-02-07T11:21:32.880Z,2.26
2023-02-07T11:24:40.275Z,2.47
2023-02-07T11:27:54.314Z,2.61
2023-02-07T11:31:06.864Z,2.62
2023-02-07T11:34:34.009Z,2.27
2023-02-07T11:37:49.777Z,2.53
2023-02-07T11:41:01.373Z,2.11
2023-02-07T11:44:24.735Z,2.11
2023-02-07T11:47:35.046Z,1.86
2023-02-07T11:50:44.354Z,1.65
2023-02-07T11:54:13.612Z,1.48
2023-02-07T11:57:23.150Z,1.78
2023-02-07T12:00:35.107Z,2.00
2023-02-07T12:04:03.779Z,2.05
2023-02-07T12:07:46.350Z,2.43
2023-02-07T12:10:57.608Z,2.38
2023-02-07T12:14:26.151Z,2.15
2023-02-07T12:18:13.543Z,1.97
2023-02-07T12:21:57.118Z,1.98
2023-02-07T12:25:17.713Z,1.74
2023-02-07T12:28:31.950Z,1.69
2023-02-07T12:31:51.355Z,1.57
2023-02-07T12:35:11.185Z,1.58
2023-02-07T12:38:35.650Z,1.71
2023-02-07T12:41:58.831Z,1.93
2023-02-07T12:45:13.092Z,2.07
2023-02-07T12:48:26.494Z,2.10
2023-02-07T12:52:00.114Z,1.80
2023-02-07T12:55:20.651Z,1.87
2023-02-07T12:58:44.478Z,2.03
2023-02-07T13:02:03.803Z,1.98
2023-02-07T13:05:32.222Z,1.67
2023-02-07T13:09:04.769Z,1.53
2023-02-07T13:12:17.978Z,1.77
2023-02-07T13:16:02.903Z,1.88
2023-02-07T13:19:36.847Z,1.60
2023-02-07T13:23:05.401Z,1.38
2023-02-07T13:26:21.930Z,1.70
2023-02-07T13:29:34.485Z,1.68
2023-02-07T13:32:40.943Z,1.46
2023-02-07T13:35:53.247Z,1.68
2023-02-07T13:39:05.108Z,1.71
2023-02-07T13:42:47.615Z,1.57
2023-02-07T13:46:11.852Z,1.61
2023-02-07T13:49:24.437Z,1.49
2023-02-07T13:53:12.496Z,1.45
2023-02-07T13:56:45.507Z,1.39
2023-02-07T14:00:12.325Z,1.20
2023-02-07T14:03:26.531Z,1.17
2023-02-07T14:06:38.583Z,1.19
2023-02-07T14:09:48.817Z,1.24
2023-02-07T14:12:56.443Z,1.19
2023-02-07T14:16:11.983Z,1.18
2023-02-07T14:19:40.680Z,1.03
2023-02-07T14:22:47.139Z,1.06
2023-02-07T14:25:56.721Z,1.00
2023-02-07T14:29:20.444Z,0.92
2023-02-07T14:32:44.910Z,0.84
2023-02-07T14:36:18.099Z,0.77
2023-02-07T14:39:35.544Z,0.76
2023-02-07T14:42:43.424Z,0.74
2023-02-07T14:45:51.533Z,0.71
2023-02-07T14:49:23.723Z,0.68
2023-02-07T14:52:48.954Z,0.57
2023-02-07T14:56:01.913Z,0.49
2023-02-07T14:59:07.012Z,0.40
2023-02-07T15:02:34.587Z,0.45
2023-02-07T15:05:40.240Z,0.44
2023-02-07T15:09:03.575Z,0.49
2023-02-07T15:12:27.342Z,0.30
2023-02-07T15:16:02.258Z,0.16
2023-02-07T15:19:33.804Z,-0.10
2023-02-07T15:22:46.241Z,-0.26
2023-02-07T15:26:00.812Z,-0.28
2023-02-07T15:29:09.692Z,-0.50
2023-02-07T15:32:24.300Z,-0.47
2023-02-07T15:35:45.191Z,-0.35
2023-02-07T15:38:50.837Z,-0.29
2023-02-07T15:42:00.506Z,-0.10
2023-02-07T15:45:24.687Z,-0.34
2023-02-07T15:48:37.244Z,-0.52
2023-02-07T15:51:50.054Z,-0.99
2023-02-07T15:55:01.942Z,-0.97
2023-02-07T15:58:14.767Z,-0.74
2023-02-07T16:01:33.904Z,-0.45
2023-02-07T16:04:43.683Z,-0.26
2023-02-07T16:07:54.249Z,-0.11
2023-02-07T16:11:21.192Z,-0.08
2023-02-07T16:14:25.820Z,-0.17
2023-02-07T16:17:41.921Z,-0.23
2023-02-07T16:20:55.003Z,-0.30
2023-02-07T16:24:10.800Z,-0.21
2023-02-07T16:27:27.440Z,-0.16
2023-02-07T16:30:40.641Z,-0.31
2023-02-07T16:33:49.608Z,-0.57
2023-02-07T16:36:58.651Z,-0.62
2023-02-07T16:40:00.997Z,-0.70
2023-02-07T16:43:09.362Z,-0.85
2023-02-07T16:46:14.288Z,-0.95
2023-02-07T16:49:29.638Z,-0.89
2023-02-07T16:52:33.994Z,-1.16
2023-02-07T16:55:40.799Z,-1.49
2023-02-07T16:58:47.929Z,-1.66
2023-02-07T17:01:59.626Z,-1.70
2023-02-07T17:05:08.825Z,-1.82
2023-02-07T17:08:27.137Z,-2.19
2023-02-07T17:11:34.073Z,-2.23
2023-02-07T17:14:58.731Z,-2.20
2023-02-07T17:18:20.600Z,-2.29
2023-02-07T17:21:23.832Z,-2.15
2023-02-07T17:24:35.167Z,-2.37
2023-02-07T17:27:43.180Z,-2.37
2023-02-07T17:30:45.683Z,-2.42
2023-02-07T17:33:56.705Z,-2.37
2023-02-07T17:37:01.051Z,-2.40
2023-02-07T17:40:06.340Z,-2.52
2023-02-07T17:43:08.840Z,-2.66
2023-02-07T17:46:21.659Z,-2.77
2023-02-07T17:49:24.081Z,-2.77
2023-02-07T17:52:28.591Z,-2.70
2023-02-07T17:55:36.639Z,-2.78
2023-02-07T17:58:44.717Z,-2.59
2023-02-07T18:02:01.480Z,-2.52
2023-02-07T18:05:04.939Z,-2.60
2023-02-07T18:08:10.150Z,-2.52
2023-02-07T18:11:14.351Z,-2.66
2023-02-07T18:14:16.941Z,-2.54
2023-02-07T18:17:30.886Z,-2.57
2023-02-07T18:20:35.745Z,-2.53
2023-02-07T18:23:47.217Z,-2.57
2023-02-07T18:26:52.659Z,-2.53
2023-02-07T18:29:58.306Z,-2.72
2023-02-07T18:33:05.421Z,-2.80
2023-02-07T18:36:38.710Z,-2.82
2023-02-07T18:39:47.766Z,-2.86
2023-02-07T18:42:53.257Z,-3.03
2023-02-07T18:45:59.705Z,-3.27
2023-02-07T18:49:03.858Z,-3.30
2023-02-07T18:52:13.309Z,-3.41
2023-02-07T18:55:24.144Z,-3.39
2023-02-07T18:58:38.381Z,-3.52
2023-02-07T19:01:53.964Z,-3.53
2023-02-07T19:05:02.681Z,-3.63
2023-02-07T19:08:10.342Z,-3.61
2023-02-07T19:11:12.670Z,-3.62
2023-02-07T19:14:24.224Z,-3.56
2023-02-07T19:17:29.259Z,-3.52
2023-02-07T19:20:34.911Z,-3.60
2023-02-07T19:23:45.039Z,-3.61
2023-02-07T19:26:56.596Z,-3.69
2023-02-07T19:30:08.512Z,-3.70
2023-02-07T19:33:21.011Z,-3.79
2023-02-07T19:36:31.336Z,-3.75
2023-02-07T19:39:36.411Z,-3.64
2023-02-07T19:42:38.786Z,-3.33
2023-02-07T19:45:45.338Z,-3.33
2023-02-07T19:48:51.149Z,-3.49
2023-02-07T19:52:03.598Z,-3.72
2023-02-07T19:55:10.043Z,-3.99
2023-02-07T19:58:16.431Z,-3.98
2023-02-07T20:01:20.699Z,-3.91
2023-02-07T20:04:38.247Z,-3.95
2023-02-07T20:07:45.440Z,-3.93
2023-02-07T20:10:54.240Z,-3.97
2023-02-07T20:14:03.097Z,-3.96
2023-02-07T20:17:08.415Z,-4.02
2023-02-07T20:20:15.141Z,-3.91
2023-02-07T20:23:17.544Z,-3.99
2023-02-07T20:26:40.523Z,-4.10
2023-02-07T20:29:48.387Z,-4.17
2023-02-07T20:33:14.221Z,-4.20
2023-02-07T20:36:22.829Z,-4.30
2023-02-07T20:39:32.664Z,-4.02
2023-02-07T20:42:37.833Z,-3.91
2023-02-07T20:45:40.714Z,-3.80
2023-02-07T20:48:47.620Z,-3.93
2023-02-07T20:51:51.908Z,-4.00
2023-02-07T20:54:54.183Z,-4.08
2023-02-07T20:57:58.429Z,-4.10
2023-02-07T21:01:21.790Z,-4.29
2023-02-07T21:04:27.693Z,-4.43
2023-02-07T21:07:32.557Z,-4.35
2023-02-07T21:10:40.775Z,-4.35
2023-02-07T21:13:54.441Z,-4.50
2023-02-07T21:17:05.976Z,-4.70
2023-02-07T21:20:14.835Z,-4.78
2023-02-07T21:23:19.653Z,-4.66
2023-02-07T21:26:32.966Z,-4.42
2023-02-07T21:29:36.515Z,-4.40
2023-02-07T21:32:41.048Z,-4.41
2023-02-07T21:35:45.500Z,-4.34
2023-02-07T21:38:52.258Z,-4.53
2023-02-07T21:42:06.567Z,-4.72
2023-02-07T21:45:11.789Z,-4.74
2023-02-07T21:48:20.845Z,-4.86
2023-02-07T21:51:39.082Z,-4.81
2023-02-07T21:54:46.728Z,-4.80
2023-02-07T21:57:50.171Z,-4.58
2023-02-07T22:01:04.626Z,-4.47
2023-02-07T22:04:20.923Z,-4.55
2023-02-07T22:07:31.098Z,-4.55
2023-02-07T22:10:46.747Z,-4.68
2023-02-07T22:14:01.495Z,-4.71
2023-02-07T22:17:18.053Z,-4.83
2023-02-07T22:20:29.600Z,-4.79
2023-02-07T22:23:39.462Z,-4.95
2023-02-07T22:26:46.581Z,-5.05
2023-02-07T22:29:56.840Z,-5.18
2023-02-07T22:33:13.438Z,-5.07
2023-02-07T22:36:19.139Z,-4.87
2023-02-07T22:39:24.831Z,-4.89
2023-02-07T22:42:40.840Z,-4.79
2023-02-07T22:45:47.915Z,-4.87
2023-02-07T22:48:51.590Z,-4.97
2023-02-07T22:51:53.929Z,-4.94
2023-02-07T22:55:03.054Z,-5.08
2023-02-07T22:58:08.088Z,-5.16
2023-02-07T23:01:25.398Z,-5.08
2023-02-07T23:04:30.049Z,-5.22
2023-02-07T23:07:35.615Z,-5.30
2023-02-07T23:10:54.182Z,-5.38
2023-02-07T23:13:59.432Z,-5.49
2023-02-07T23:17:03.704Z,-5.36
2023-02-07T23:20:08.840Z,-5.44
2023-02-07T23:23:16.942Z,-5.34
2023-02-07T23:26:32.543Z,-5.38
2023-02-07T23:29:39.582Z,-5.28
2023-02-07T23:32:52.993Z,-5.20
2023-02-07T23:35:59.580Z,-5.11
2023-02-07T23:39:07.422Z,-5.09
2023-02-07T23:42:19.146Z,-5.01
2023-02-07T23:45:23.558Z,-4.95
2023-02-07T23:48:43.373Z,-4.79
2023-02-07T23:51:45.736Z,-4.64
2023-02-07T23:54:49.671Z,-4.56
2023-02-07T23:57:51.986Z,-4.44
